sensor_id;sensor_type;location;lat;lon;timestamp;P1;durP1;ratioP1;P2;durP2;ratioP2
53263;SDS011;39153;52.680;6.172;2023-09-19T00:00:21;10.07;;;2.60;;
53263;SDS011;39153;52.680;6.172;2023-09-19T00:02:56;9.63;;;2.58;;
53263;SDS011;39153;52.680;6.172;2023-09-19T00:05:29;12.85;;;2.40;;
53263;SDS011;39153;52.680;6.172;2023-09-19T00:08:00;14.13;;;3.00;;
53263;SDS011;39153;52.680;6.172;2023-09-19T00:10:26;9.88;;;2.60;;
53263;SDS011;39153;52.680;6.172;2023-09-19T00:12:56;10.57;;;2.42;;
53263;SDS011;39153;52.680;6.172;2023-09-19T00:15:24;9.27;;;2.20;;
53263;SDS011;39153;52.680;6.172;2023-09-19T00:17:56;12.00;;;2.88;;
53263;SDS011;39153;52.680;6.172;2023-09-19T00:20:22;10.70;;;2.50;;
53263;SDS011;39153;52.680;6.172;2023-09-19T00:22:51;7.78;;;1.55;;
53263;SDS011;39153;52.680;6.172;2023-09-19T00:25:19;14.15;;;2.72;;
53263;SDS011;39153;52.680;6.172;2023-09-19T00:27:45;12.20;;;2.75;;
53263;SDS011;39153;52.680;6.172;2023-09-19T00:30:13;9.25;;;2.20;;
53263;SDS011;39153;52.680;6.172;2023-09-19T00:32:45;11.18;;;2.47;;
53263;SDS011;39153;52.680;6.172;2023-09-19T00:35:15;13.65;;;2.70;;
53263;SDS011;39153;52.680;6.172;2023-09-19T00:37:41;11.80;;;2.88;;
53263;SDS011;39153;52.680;6.172;2023-09-19T00:40:07;9.38;;;1.67;;
53263;SDS011;39153;52.680;6.172;2023-09-19T00:42:38;15.05;;;3.47;;
53263;SDS011;39153;52.680;6.172;2023-09-19T00:45:05;12.23;;;1.77;;
53263;SDS011;39153;52.680;6.172;2023-09-19T00:47:34;13.25;;;2.90;;
53263;SDS011;39153;52.680;6.172;2023-09-19T00:50:00;10.65;;;2.70;;
53263;SDS011;39153;52.680;6.172;2023-09-19T00:52:28;12.60;;;2.95;;
53263;SDS011;39153;52.680;6.172;2023-09-19T00:54:54;14.93;;;2.90;;
53263;SDS011;39153;52.680;6.172;2023-09-19T00:57:19;14.30;;;2.60;;
53263;SDS011;39153;52.680;6.172;2023-09-19T00:59:47;15.10;;;3.13;;
53263;SDS011;39153;52.680;6.172;2023-09-19T01:02:15;13.10;;;3.00;;
53263;SDS011;39153;52.680;6.172;2023-09-19T01:04:41;11.95;;;2.50;;
53263;SDS011;39153;52.680;6.172;2023-09-19T01:07:08;13.25;;;3.22;;
53263;SDS011;39153;52.680;6.172;2023-09-19T01:09:34;9.05;;;2.63;;
53263;SDS011;39153;52.680;6.172;2023-09-19T01:12:01;15.18;;;3.00;;
53263;SDS011;39153;52.680;6.172;2023-09-19T01:14:42;12.93;;;2.95;;
53263;SDS011;39153;52.680;6.172;2023-09-19T01:17:30;12.73;;;2.90;;
53263;SDS011;39153;52.680;6.172;2023-09-19T01:28:32;9.45;;;2.65;;
53263;SDS011;39153;52.680;6.172;2023-09-19T01:31:09;7.35;;;2.38;;
53263;SDS011;39153;52.680;6.172;2023-09-19T01:34:09;10.23;;;2.55;;
53263;SDS011;39153;52.680;6.172;2023-09-19T01:36:36;12.85;;;3.47;;
53263;SDS011;39153;52.680;6.172;2023-09-19T01:39:10;15.07;;;3.25;;
53263;SDS011;39153;52.680;6.172;2023-09-19T01:42:21;13.63;;;3.08;;
53263;SDS011;39153;52.680;6.172;2023-09-19T01:44:49;10.82;;;2.80;;
53263;SDS011;39153;52.680;6.172;2023-09-19T01:47:42;10.35;;;2.85;;
53263;SDS011;39153;52.680;6.172;2023-09-19T01:52:55;12.90;;;3.03;;
53263;SDS011;39153;52.680;6.172;2023-09-19T01:55:29;10.95;;;2.85;;
53263;SDS011;39153;52.680;6.172;2023-09-19T01:58:06;10.55;;;2.90;;
53263;SDS011;39153;52.680;6.172;2023-09-19T02:00:36;13.27;;;2.97;;
53263;SDS011;39153;52.680;6.172;2023-09-19T02:03:06;6.40;;;1.60;;
53263;SDS011;39153;52.680;6.172;2023-09-19T02:05:33;9.43;;;2.70;;
53263;SDS011;39153;52.680;6.172;2023-09-19T02:07:59;11.98;;;3.10;;
53263;SDS011;39153;52.680;6.172;2023-09-19T02:10:25;13.68;;;3.08;;
53263;SDS011;39153;52.680;6.172;2023-09-19T02:12:51;12.80;;;2.90;;
53263;SDS011;39153;52.680;6.172;2023-09-19T02:15:17;9.93;;;2.47;;
53263;SDS011;39153;52.680;6.172;2023-09-19T02:17:43;8.80;;;2.40;;
53263;SDS011;39153;52.680;6.172;2023-09-19T02:20:11;11.70;;;2.88;;
53263;SDS011;39153;52.680;6.172;2023-09-19T02:22:43;12.75;;;2.60;;
53263;SDS011;39153;52.680;6.172;2023-09-19T02:25:09;15.45;;;3.17;;
53263;SDS011;39153;52.680;6.172;2023-09-19T02:27:36;11.20;;;2.65;;
53263;SDS011;39153;52.680;6.172;2023-09-19T02:30:02;10.32;;;3.15;;
53263;SDS011;39153;52.680;6.172;2023-09-19T02:32:29;12.50;;;3.25;;
53263;SDS011;39153;52.680;6.172;2023-09-19T02:34:56;10.70;;;2.13;;
53263;SDS011;39153;52.680;6.172;2023-09-19T02:37:25;8.88;;;2.20;;
53263;SDS011;39153;52.680;6.172;2023-09-19T02:39:51;8.25;;;2.22;;
53263;SDS011;39153;52.680;6.172;2023-09-19T02:42:17;10.60;;;2.75;;
53263;SDS011;39153;52.680;6.172;2023-09-19T02:44:42;9.00;;;2.65;;
53263;SDS011;39153;52.680;6.172;2023-09-19T02:47:11;13.20;;;2.88;;
53263;SDS011;39153;52.680;6.172;2023-09-19T02:49:37;8.52;;;2.30;;
53263;SDS011;39153;52.680;6.172;2023-09-19T02:52:03;8.23;;;2.50;;
53263;SDS011;39153;52.680;6.172;2023-09-19T02:54:29;8.05;;;2.30;;
53263;SDS011;39153;52.680;6.172;2023-09-19T02:56:55;9.07;;;2.47;;
53263;SDS011;39153;52.680;6.172;2023-09-19T02:59:20;11.40;;;2.83;;
53263;SDS011;39153;52.680;6.172;2023-09-19T03:01:46;6.15;;;1.98;;
53263;SDS011;39153;52.680;6.172;2023-09-19T03:04:13;8.93;;;2.78;;
53263;SDS011;39153;52.680;6.172;2023-09-19T03:06:42;8.98;;;2.10;;
53263;SDS011;39153;52.680;6.172;2023-09-19T03:09:09;9.65;;;2.78;;
53263;SDS011;39153;52.680;6.172;2023-09-19T03:11:39;9.63;;;2.53;;
53263;SDS011;39153;52.680;6.172;2023-09-19T03:14:05;9.40;;;2.70;;
53263;SDS011;39153;52.680;6.172;2023-09-19T03:16:31;7.75;;;1.70;;
53263;SDS011;39153;52.680;6.172;2023-09-19T03:18:57;9.32;;;2.30;;
53263;SDS011;39153;52.680;6.172;2023-09-19T03:21:24;9.23;;;2.20;;
53263;SDS011;39153;52.680;6.172;2023-09-19T03:23:50;9.88;;;2.25;;
53263;SDS011;39153;52.680;6.172;2023-09-19T03:26:16;9.00;;;2.78;;
53263;SDS011;39153;52.680;6.172;2023-09-19T03:28:42;8.43;;;2.40;;
53263;SDS011;39153;52.680;6.172;2023-09-19T03:31:08;13.30;;;2.80;;
53263;SDS011;39153;52.680;6.172;2023-09-19T03:33:34;8.88;;;2.33;;
53263;SDS011;39153;52.680;6.172;2023-09-19T03:36:01;9.20;;;2.28;;
53263;SDS011;39153;52.680;6.172;2023-09-19T03:38:29;9.85;;;2.65;;
53263;SDS011;39153;52.680;6.172;2023-09-19T03:40:56;11.35;;;2.85;;
53263;SDS011;39153;52.680;6.172;2023-09-19T03:43:22;10.20;;;2.92;;
53263;SDS011;39153;52.680;6.172;2023-09-19T03:45:48;8.90;;;2.70;;
53263;SDS011;39153;52.680;6.172;2023-09-19T03:48:14;10.02;;;2.85;;
53263;SDS011;39153;52.680;6.172;2023-09-19T03:50:39;10.82;;;2.78;;
53263;SDS011;39153;52.680;6.172;2023-09-19T03:53:05;11.45;;;2.88;;
53263;SDS011;39153;52.680;6.172;2023-09-19T03:55:34;7.60;;;3.03;;
53263;SDS011;39153;52.680;6.172;2023-09-19T03:58:04;9.55;;;2.75;;
53263;SDS011;39153;52.680;6.172;2023-09-19T04:00:30;13.90;;;3.28;;
53263;SDS011;39153;52.680;6.172;2023-09-19T04:02:55;10.32;;;3.15;;
53263;SDS011;39153;52.680;6.172;2023-09-19T04:05:24;10.02;;;3.08;;
53263;SDS011;39153;52.680;6.172;2023-09-19T04:07:50;10.38;;;2.72;;
53263;SDS011;39153;52.680;6.172;2023-09-19T04:10:16;9.40;;;2.85;;
53263;SDS011;39153;52.680;6.172;2023-09-19T04:13:00;9.15;;;2.72;;
53263;SDS011;39153;52.680;6.172;2023-09-19T04:15:26;11.02;;;3.20;;
53263;SDS011;39153;52.680;6.172;2023-09-19T04:17:52;12.98;;;3.83;;
53263;SDS011;39153;52.680;6.172;2023-09-19T04:20:18;11.02;;;2.92;;
53263;SDS011;39153;52.680;6.172;2023-09-19T04:22:50;15.45;;;3.45;;
53263;SDS011;39153;52.680;6.172;2023-09-19T04:25:16;14.70;;;3.20;;
53263;SDS011;39153;52.680;6.172;2023-09-19T04:27:43;11.20;;;3.45;;
53263;SDS011;39153;52.680;6.172;2023-09-19T04:30:09;12.45;;;3.15;;
53263;SDS011;39153;52.680;6.172;2023-09-19T04:32:37;11.15;;;3.03;;
53263;SDS011;39153;52.680;6.172;2023-09-19T04:35:05;16.35;;;4.03;;
53263;SDS011;39153;52.680;6.172;2023-09-19T04:37:40;11.90;;;2.78;;
53263;SDS011;39153;52.680;6.172;2023-09-19T04:40:10;15.15;;;3.22;;
53263;SDS011;39153;52.680;6.172;2023-09-19T04:42:43;11.52;;;3.10;;
53263;SDS011;39153;52.680;6.172;2023-09-19T04:45:09;22.13;;;3.88;;
53263;SDS011;39153;52.680;6.172;2023-09-19T04:47:36;14.18;;;3.28;;
53263;SDS011;39153;52.680;6.172;2023-09-19T04:50:06;14.07;;;3.35;;
53263;SDS011;39153;52.680;6.172;2023-09-19T04:52:33;10.13;;;2.97;;
53263;SDS011;39153;52.680;6.172;2023-09-19T04:54:59;11.63;;;3.20;;
53263;SDS011;39153;52.680;6.172;2023-09-19T04:57:24;12.05;;;2.90;;
53263;SDS011;39153;52.680;6.172;2023-09-19T04:59:50;10.63;;;2.40;;
53263;SDS011;39153;52.680;6.172;2023-09-19T05:02:16;14.98;;;2.97;;
53263;SDS011;39153;52.680;6.172;2023-09-19T05:04:41;12.95;;;3.30;;
53263;SDS011;39153;52.680;6.172;2023-09-19T05:07:07;7.38;;;1.42;;
53263;SDS011;39153;52.680;6.172;2023-09-19T05:09:33;13.60;;;3.20;;
53263;SDS011;39153;52.680;6.172;2023-09-19T05:11:59;10.50;;;3.08;;
53263;SDS011;39153;52.680;6.172;2023-09-19T05:14:25;13.27;;;3.13;;
53263;SDS011;39153;52.680;6.172;2023-09-19T05:16:51;13.75;;;2.90;;
53263;SDS011;39153;52.680;6.172;2023-09-19T05:19:17;12.80;;;2.70;;
53263;SDS011;39153;52.680;6.172;2023-09-19T05:21:42;11.95;;;1.98;;
53263;SDS011;39153;52.680;6.172;2023-09-19T05:24:08;17.52;;;3.33;;
53263;SDS011;39153;52.680;6.172;2023-09-19T05:26:34;12.50;;;3.00;;
53263;SDS011;39153;52.680;6.172;2023-09-19T05:28:59;13.93;;;3.15;;
53263;SDS011;39153;52.680;6.172;2023-09-19T05:31:27;12.85;;;3.17;;
53263;SDS011;39153;52.680;6.172;2023-09-19T05:33:53;14.55;;;3.67;;
53263;SDS011;39153;52.680;6.172;2023-09-19T05:36:20;11.82;;;2.83;;
53263;SDS011;39153;52.680;6.172;2023-09-19T05:38:45;13.85;;;2.80;;
53263;SDS011;39153;52.680;6.172;2023-09-19T05:41:14;14.73;;;2.97;;
53263;SDS011;39153;52.680;6.172;2023-09-19T05:43:41;13.73;;;3.50;;
53263;SDS011;39153;52.680;6.172;2023-09-19T05:46:07;7.07;;;1.92;;
53263;SDS011;39153;52.680;6.172;2023-09-19T05:48:33;20.27;;;3.45;;
53263;SDS011;39153;52.680;6.172;2023-09-19T05:50:59;11.27;;;2.92;;
53263;SDS011;39153;52.680;6.172;2023-09-19T05:53:26;19.48;;;3.55;;
53263;SDS011;39153;52.680;6.172;2023-09-19T05:55:51;8.25;;;1.83;;
53263;SDS011;39153;52.680;6.172;2023-09-19T05:58:18;9.15;;;1.60;;
53263;SDS011;39153;52.680;6.172;2023-09-19T06:00:45;12.30;;;3.10;;
53263;SDS011;39153;52.680;6.172;2023-09-19T06:03:12;12.38;;;2.80;;
53263;SDS011;39153;52.680;6.172;2023-09-19T06:05:39;14.75;;;3.42;;
53263;SDS011;39153;52.680;6.172;2023-09-19T06:08:08;15.10;;;3.58;;
53263;SDS011;39153;52.680;6.172;2023-09-19T06:10:34;12.80;;;3.58;;
53263;SDS011;39153;52.680;6.172;2023-09-19T06:13:01;11.60;;;2.85;;
53263;SDS011;39153;52.680;6.172;2023-09-19T06:15:31;12.63;;;3.17;;
53263;SDS011;39153;52.680;6.172;2023-09-19T06:17:58;12.43;;;2.80;;
53263;SDS011;39153;52.680;6.172;2023-09-19T06:20:25;12.05;;;3.08;;
53263;SDS011;39153;52.680;6.172;2023-09-19T06:22:51;13.73;;;2.90;;
53263;SDS011;39153;52.680;6.172;2023-09-19T06:25:17;12.30;;;3.17;;
53263;SDS011;39153;52.680;6.172;2023-09-19T06:27:47;16.60;;;2.92;;
53263;SDS011;39153;52.680;6.172;2023-09-19T06:30:19;10.18;;;1.90;;
53263;SDS011;39153;52.680;6.172;2023-09-19T06:32:45;10.68;;;1.92;;
53263;SDS011;39153;52.680;6.172;2023-09-19T06:35:12;14.88;;;3.05;;
53263;SDS011;39153;52.680;6.172;2023-09-19T06:37:39;14.32;;;2.83;;
53263;SDS011;39153;52.680;6.172;2023-09-19T06:40:07;8.50;;;1.45;;
53263;SDS011;39153;52.680;6.172;2023-09-19T06:43:00;12.77;;;3.10;;
53263;SDS011;39153;52.680;6.172;2023-09-19T06:45:27;15.20;;;3.03;;
53263;SDS011;39153;52.680;6.172;2023-09-19T06:47:53;12.15;;;3.33;;
53263;SDS011;39153;52.680;6.172;2023-09-19T06:50:22;12.18;;;3.25;;
53263;SDS011;39153;52.680;6.172;2023-09-19T06:52:49;15.45;;;3.30;;
53263;SDS011;39153;52.680;6.172;2023-09-19T06:55:17;13.68;;;3.75;;
53263;SDS011;39153;52.680;6.172;2023-09-19T06:57:45;13.88;;;3.50;;
53263;SDS011;39153;52.680;6.172;2023-09-19T07:00:11;13.98;;;3.00;;
53263;SDS011;39153;52.680;6.172;2023-09-19T07:02:41;7.47;;;1.50;;
53263;SDS011;39153;52.680;6.172;2023-09-19T07:05:07;14.70;;;3.00;;
53263;SDS011;39153;52.680;6.172;2023-09-19T07:07:33;10.52;;;2.72;;
53263;SDS011;39153;52.680;6.172;2023-09-19T07:10:02;17.08;;;3.42;;
53263;SDS011;39153;52.680;6.172;2023-09-19T07:12:30;13.90;;;3.08;;
53263;SDS011;39153;52.680;6.172;2023-09-19T07:14:58;14.40;;;3.20;;
53263;SDS011;39153;52.680;6.172;2023-09-19T07:17:23;11.02;;;1.92;;
53263;SDS011;39153;52.680;6.172;2023-09-19T07:19:49;13.27;;;2.92;;
53263;SDS011;39153;52.680;6.172;2023-09-19T07:22:15;12.75;;;2.30;;
53263;SDS011;39153;52.680;6.172;2023-09-19T07:24:41;14.70;;;3.20;;
53263;SDS011;39153;52.680;6.172;2023-09-19T07:27:07;12.35;;;2.97;;
53263;SDS011;39153;52.680;6.172;2023-09-19T07:29:34;12.18;;;2.80;;
53263;SDS011;39153;52.680;6.172;2023-09-19T07:31:59;10.48;;;3.00;;
53263;SDS011;39153;52.680;6.172;2023-09-19T07:34:25;13.05;;;2.90;;
53263;SDS011;39153;52.680;6.172;2023-09-19T07:36:51;14.73;;;3.38;;
53263;SDS011;39153;52.680;6.172;2023-09-19T07:39:16;12.57;;;3.50;;
53263;SDS011;39153;52.680;6.172;2023-09-19T07:41:42;13.15;;;3.13;;
53263;SDS011;39153;52.680;6.172;2023-09-19T07:44:08;14.50;;;2.28;;
53263;SDS011;39153;52.680;6.172;2023-09-19T07:46:36;13.25;;;3.45;;
53263;SDS011;39153;52.680;6.172;2023-09-19T07:49:02;13.82;;;1.80;;
53263;SDS011;39153;52.680;6.172;2023-09-19T07:51:27;14.93;;;3.78;;
53263;SDS011;39153;52.680;6.172;2023-09-19T07:53:54;15.02;;;3.60;;
53263;SDS011;39153;52.680;6.172;2023-09-19T07:56:20;12.55;;;2.70;;
53263;SDS011;39153;52.680;6.172;2023-09-19T07:58:46;13.60;;;2.25;;
53263;SDS011;39153;52.680;6.172;2023-09-19T08:01:12;15.35;;;4.32;;
53263;SDS011;39153;52.680;6.172;2023-09-19T08:03:38;15.32;;;3.30;;
53263;SDS011;39153;52.680;6.172;2023-09-19T08:06:06;14.00;;;3.40;;
53263;SDS011;39153;52.680;6.172;2023-09-19T08:08:32;14.02;;;3.58;;
53263;SDS011;39153;52.680;6.172;2023-09-19T08:11:07;12.15;;;3.38;;
53263;SDS011;39153;52.680;6.172;2023-09-19T08:13:40;16.80;;;3.88;;
53263;SDS011;39153;52.680;6.172;2023-09-19T08:16:09;14.85;;;3.38;;
53263;SDS011;39153;52.680;6.172;2023-09-19T08:18:35;14.63;;;3.45;;
53263;SDS011;39153;52.680;6.172;2023-09-19T08:21:05;14.82;;;3.55;;
53263;SDS011;39153;52.680;6.172;2023-09-19T08:23:36;12.63;;;3.53;;
53263;SDS011;39153;52.680;6.172;2023-09-19T08:26:03;14.75;;;2.65;;
53263;SDS011;39153;52.680;6.172;2023-09-19T08:28:33;14.00;;;3.35;;
53263;SDS011;39153;52.680;6.172;2023-09-19T08:31:04;15.70;;;2.90;;
53263;SDS011;39153;52.680;6.172;2023-09-19T08:33:34;15.38;;;3.38;;
53263;SDS011;39153;52.680;6.172;2023-09-19T08:36:01;14.98;;;3.33;;
53263;SDS011;39153;52.680;6.172;2023-09-19T08:38:31;13.40;;;3.35;;
53263;SDS011;39153;52.680;6.172;2023-09-19T08:41:00;18.98;;;3.38;;
53263;SDS011;39153;52.680;6.172;2023-09-19T08:43:30;14.05;;;4.03;;
53263;SDS011;39153;52.680;6.172;2023-09-19T08:46:20;14.35;;;3.63;;
53263;SDS011;39153;52.680;6.172;2023-09-19T08:48:46;13.27;;;3.45;;
53263;SDS011;39153;52.680;6.172;2023-09-19T08:51:39;13.80;;;3.25;;
53263;SDS011;39153;52.680;6.172;2023-09-19T08:54:21;10.57;;;3.08;;
53263;SDS011;39153;52.680;6.172;2023-09-19T08:56:51;16.48;;;2.28;;
53263;SDS011;39153;52.680;6.172;2023-09-19T08:59:22;13.98;;;3.00;;
53263;SDS011;39153;52.680;6.172;2023-09-19T09:01:54;12.65;;;2.80;;
53263;SDS011;39153;52.680;6.172;2023-09-19T09:04:22;12.90;;;2.47;;
53263;SDS011;39153;52.680;6.172;2023-09-19T09:06:49;12.90;;;3.30;;
53263;SDS011;39153;52.680;6.172;2023-09-19T09:09:18;15.93;;;3.45;;
53263;SDS011;39153;52.680;6.172;2023-09-19T09:11:45;14.13;;;2.83;;
53263;SDS011;39153;52.680;6.172;2023-09-19T09:14:13;13.35;;;3.10;;
53263;SDS011;39153;52.680;6.172;2023-09-19T09:16:39;12.60;;;3.00;;
53263;SDS011;39153;52.680;6.172;2023-09-19T09:19:05;11.05;;;3.05;;
53263;SDS011;39153;52.680;6.172;2023-09-19T09:21:30;11.57;;;2.85;;
53263;SDS011;39153;52.680;6.172;2023-09-19T09:24:25;14.32;;;3.40;;
53263;SDS011;39153;52.680;6.172;2023-09-19T09:26:58;17.83;;;4.20;;
53263;SDS011;39153;52.680;6.172;2023-09-19T09:32:25;18.05;;;3.38;;
53263;SDS011;39153;52.680;6.172;2023-09-19T09:34:54;18.30;;;3.72;;
53263;SDS011;39153;52.680;6.172;2023-09-19T09:37:22;13.90;;;3.67;;
53263;SDS011;39153;52.680;6.172;2023-09-19T09:42:30;15.47;;;2.67;;
53263;SDS011;39153;52.680;6.172;2023-09-19T09:48:00;14.55;;;3.78;;
53263;SDS011;39153;52.680;6.172;2023-09-19T09:50:39;16.92;;;3.90;;
53263;SDS011;39153;52.680;6.172;2023-09-19T09:53:25;16.23;;;2.60;;
53263;SDS011;39153;52.680;6.172;2023-09-19T09:58:27;15.90;;;4.15;;
53263;SDS011;39153;52.680;6.172;2023-09-19T10:01:03;13.10;;;4.13;;
53263;SDS011;39153;52.680;6.172;2023-09-19T10:03:40;16.52;;;3.80;;
53263;SDS011;39153;52.680;6.172;2023-09-19T10:06:12;14.95;;;4.03;;
53263;SDS011;39153;52.680;6.172;2023-09-19T10:11:35;12.50;;;3.53;;
53263;SDS011;39153;52.680;6.172;2023-09-19T10:14:15;14.55;;;3.60;;
53263;SDS011;39153;52.680;6.172;2023-09-19T10:16:47;14.40;;;3.47;;
53263;SDS011;39153;52.680;6.172;2023-09-19T10:22:11;11.65;;;3.05;;
53263;SDS011;39153;52.680;6.172;2023-09-19T10:24:40;12.63;;;3.20;;
53263;SDS011;39153;52.680;6.172;2023-09-19T10:27:06;12.02;;;3.05;;
53263;SDS011;39153;52.680;6.172;2023-09-19T10:29:35;11.10;;;2.85;;
53263;SDS011;39153;52.680;6.172;2023-09-19T10:32:04;15.48;;;3.00;;
53263;SDS011;39153;52.680;6.172;2023-09-19T10:34:40;15.65;;;3.47;;
53263;SDS011;39153;52.680;6.172;2023-09-19T10:37:07;10.63;;;2.97;;
53263;SDS011;39153;52.680;6.172;2023-09-19T10:39:37;14.57;;;3.47;;
53263;SDS011;39153;52.680;6.172;2023-09-19T10:42:05;10.85;;;2.58;;
53263;SDS011;39153;52.680;6.172;2023-09-19T10:44:34;15.48;;;3.33;;
53263;SDS011;39153;52.680;6.172;2023-09-19T10:47:07;11.88;;;3.15;;
53263;SDS011;39153;52.680;6.172;2023-09-19T10:49:34;17.15;;;3.63;;
53263;SDS011;39153;52.680;6.172;2023-09-19T10:51:59;12.52;;;3.08;;
53263;SDS011;39153;52.680;6.172;2023-09-19T10:54:29;13.35;;;2.97;;
53263;SDS011;39153;52.680;6.172;2023-09-19T10:56:59;14.02;;;2.90;;
53263;SDS011;39153;52.680;6.172;2023-09-19T10:59:26;14.02;;;3.30;;
53263;SDS011;39153;52.680;6.172;2023-09-19T11:01:59;16.98;;;3.58;;
53263;SDS011;39153;52.680;6.172;2023-09-19T11:04:42;10.55;;;2.88;;
53263;SDS011;39153;52.680;6.172;2023-09-19T11:07:13;15.52;;;3.15;;
53263;SDS011;39153;52.680;6.172;2023-09-19T11:15:02;11.65;;;2.55;;
53263;SDS011;39153;52.680;6.172;2023-09-19T11:17:39;15.35;;;3.00;;
53263;SDS011;39153;52.680;6.172;2023-09-19T11:30:32;11.30;;;2.53;;
53263;SDS011;39153;52.680;6.172;2023-09-19T11:33:17;11.85;;;2.70;;
53263;SDS011;39153;52.680;6.172;2023-09-19T11:43:48;11.15;;;2.58;;
53263;SDS011;39153;52.680;6.172;2023-09-19T11:46:15;8.48;;;2.05;;
53263;SDS011;39153;52.680;6.172;2023-09-19T11:48:47;9.90;;;2.47;;
53263;SDS011;39153;52.680;6.172;2023-09-19T11:51:18;10.90;;;2.42;;
53263;SDS011;39153;52.680;6.172;2023-09-19T11:53:45;10.20;;;2.50;;
53263;SDS011;39153;52.680;6.172;2023-09-19T11:56:14;10.35;;;2.00;;
53263;SDS011;39153;52.680;6.172;2023-09-19T11:58:45;7.88;;;2.10;;
53263;SDS011;39153;52.680;6.172;2023-09-19T12:01:14;12.25;;;2.40;;
53263;SDS011;39153;52.680;6.172;2023-09-19T12:03:46;10.82;;;2.30;;
53263;SDS011;39153;52.680;6.172;2023-09-19T12:06:17;8.25;;;2.13;;
53263;SDS011;39153;52.680;6.172;2023-09-19T12:08:43;10.88;;;2.15;;
53263;SDS011;39153;52.680;6.172;2023-09-19T12:11:12;10.63;;;2.47;;
53263;SDS011;39153;52.680;6.172;2023-09-19T12:13:47;10.35;;;2.03;;
53263;SDS011;39153;52.680;6.172;2023-09-19T12:16:18;7.55;;;1.98;;
53263;SDS011;39153;52.680;6.172;2023-09-19T12:18:47;12.90;;;2.67;;
53263;SDS011;39153;52.680;6.172;2023-09-19T12:21:28;12.35;;;2.55;;
53263;SDS011;39153;52.680;6.172;2023-09-19T12:26:43;14.05;;;2.38;;
53263;SDS011;39153;52.680;6.172;2023-09-19T12:29:16;9.48;;;2.17;;
53263;SDS011;39153;52.680;6.172;2023-09-19T12:31:49;9.65;;;2.35;;
53263;SDS011;39153;52.680;6.172;2023-09-19T12:34:25;9.15;;;2.13;;
53263;SDS011;39153;52.680;6.172;2023-09-19T12:37:05;7.85;;;1.98;;
53263;SDS011;39153;52.680;6.172;2023-09-19T12:39:44;8.98;;;1.92;;
53263;SDS011;39153;52.680;6.172;2023-09-19T12:42:22;9.98;;;2.25;;
53263;SDS011;39153;52.680;6.172;2023-09-19T12:44:49;10.80;;;2.42;;
53263;SDS011;39153;52.680;6.172;2023-09-19T12:47:21;8.35;;;1.60;;
53263;SDS011;39153;52.680;6.172;2023-09-19T12:52:45;8.13;;;1.75;;
53263;SDS011;39153;52.680;6.172;2023-09-19T12:55:23;12.23;;;2.25;;
53263;SDS011;39153;52.680;6.172;2023-09-19T13:00:39;7.28;;;1.65;;
53263;SDS011;39153;52.680;6.172;2023-09-19T13:11:13;7.43;;;1.85;;
53263;SDS011;39153;52.680;6.172;2023-09-19T13:16:19;7.28;;;1.70;;
53263;SDS011;39153;52.680;6.172;2023-09-19T13:18:57;6.60;;;1.33;;
53263;SDS011;39153;52.680;6.172;2023-09-19T13:21:29;7.35;;;1.77;;
53263;SDS011;39153;52.680;6.172;2023-09-19T13:24:20;7.07;;;1.50;;
53263;SDS011;39153;52.680;6.172;2023-09-19T13:26:48;8.35;;;1.42;;
53263;SDS011;39153;52.680;6.172;2023-09-19T13:29:14;8.98;;;1.55;;
53263;SDS011;39153;52.680;6.172;2023-09-19T13:31:46;5.68;;;1.67;;
53263;SDS011;39153;52.680;6.172;2023-09-19T13:34:12;6.70;;;1.23;;
53263;SDS011;39153;52.680;6.172;2023-09-19T13:36:40;4.85;;;1.30;;
53263;SDS011;39153;52.680;6.172;2023-09-19T13:39:07;6.95;;;1.60;;
53263;SDS011;39153;52.680;6.172;2023-09-19T13:41:34;7.82;;;1.65;;
53263;SDS011;39153;52.680;6.172;2023-09-19T13:44:04;8.02;;;1.70;;
53263;SDS011;39153;52.680;6.172;2023-09-19T13:46:31;7.80;;;1.38;;
53263;SDS011;39153;52.680;6.172;2023-09-19T13:48:58;7.28;;;1.95;;
53263;SDS011;39153;52.680;6.172;2023-09-19T13:51:27;6.22;;;1.33;;
53263;SDS011;39153;52.680;6.172;2023-09-19T13:53:57;11.55;;;2.05;;
53263;SDS011;39153;52.680;6.172;2023-09-19T13:56:24;4.72;;;1.23;;
53263;SDS011;39153;52.680;6.172;2023-09-19T13:58:53;7.65;;;1.52;;
53263;SDS011;39153;52.680;6.172;2023-09-19T14:01:19;5.80;;;1.38;;
53263;SDS011;39153;52.680;6.172;2023-09-19T14:03:45;8.25;;;1.60;;
53263;SDS011;39153;52.680;6.172;2023-09-19T14:06:14;7.72;;;1.48;;
53263;SDS011;39153;52.680;6.172;2023-09-19T14:08:46;7.20;;;1.30;;
53263;SDS011;39153;52.680;6.172;2023-09-19T14:11:13;6.53;;;1.17;;
53263;SDS011;39153;52.680;6.172;2023-09-19T14:13:39;6.68;;;1.52;;
53263;SDS011;39153;52.680;6.172;2023-09-19T14:16:05;7.72;;;1.30;;
53263;SDS011;39153;52.680;6.172;2023-09-19T14:18:33;9.98;;;1.45;;
53263;SDS011;39153;52.680;6.172;2023-09-19T14:21:05;4.68;;;1.20;;
53263;SDS011;39153;52.680;6.172;2023-09-19T14:23:36;8.93;;;1.63;;
53263;SDS011;39153;52.680;6.172;2023-09-19T14:26:06;7.25;;;1.30;;
53263;SDS011;39153;52.680;6.172;2023-09-19T14:28:32;6.70;;;1.48;;
53263;SDS011;39153;52.680;6.172;2023-09-19T14:31:08;6.13;;;1.13;;
53263;SDS011;39153;52.680;6.172;2023-09-19T14:33:34;6.63;;;1.30;;
53263;SDS011;39153;52.680;6.172;2023-09-19T14:36:02;6.63;;;1.50;;
53263;SDS011;39153;52.680;6.172;2023-09-19T14:38:33;5.82;;;1.50;;
53263;SDS011;39153;52.680;6.172;2023-09-19T14:41:02;6.40;;;2.00;;
53263;SDS011;39153;52.680;6.172;2023-09-19T14:43:29;6.22;;;1.60;;
53263;SDS011;39153;52.680;6.172;2023-09-19T14:45:56;8.63;;;2.05;;
53263;SDS011;39153;52.680;6.172;2023-09-19T14:48:24;6.90;;;1.90;;
53263;SDS011;39153;52.680;6.172;2023-09-19T14:50:51;4.75;;;1.45;;
53263;SDS011;39153;52.680;6.172;2023-09-19T14:53:17;6.93;;;1.33;;
53263;SDS011;39153;52.680;6.172;2023-09-19T14:55:43;6.28;;;1.60;;
53263;SDS011;39153;52.680;6.172;2023-09-19T14:58:10;5.82;;;1.48;;
53263;SDS011;39153;52.680;6.172;2023-09-19T15:00:37;4.65;;;1.30;;
53263;SDS011;39153;52.680;6.172;2023-09-19T15:03:03;6.63;;;1.27;;
53263;SDS011;39153;52.680;6.172;2023-09-19T15:05:29;6.85;;;1.63;;
53263;SDS011;39153;52.680;6.172;2023-09-19T15:07:55;7.53;;;1.55;;
53263;SDS011;39153;52.680;6.172;2023-09-19T15:10:22;8.35;;;1.40;;
53263;SDS011;39153;52.680;6.172;2023-09-19T15:12:48;7.22;;;1.60;;
53263;SDS011;39153;52.680;6.172;2023-09-19T15:15:14;5.95;;;1.20;;
53263;SDS011;39153;52.680;6.172;2023-09-19T15:17:40;9.90;;;1.52;;
53263;SDS011;39153;52.680;6.172;2023-09-19T15:20:06;10.38;;;1.60;;
53263;SDS011;39153;52.680;6.172;2023-09-19T15:22:35;6.35;;;1.30;;
53263;SDS011;39153;52.680;6.172;2023-09-19T15:25:01;8.43;;;1.50;;
53263;SDS011;39153;52.680;6.172;2023-09-19T15:27:29;5.70;;;1.42;;
53263;SDS011;39153;52.680;6.172;2023-09-19T15:29:56;7.75;;;1.60;;
53263;SDS011;39153;52.680;6.172;2023-09-19T15:32:23;4.85;;;1.20;;
53263;SDS011;39153;52.680;6.172;2023-09-19T15:34:49;7.53;;;1.80;;
53263;SDS011;39153;52.680;6.172;2023-09-19T15:37:15;7.10;;;1.40;;
53263;SDS011;39153;52.680;6.172;2023-09-19T15:39:41;12.07;;;1.70;;
53263;SDS011;39153;52.680;6.172;2023-09-19T15:42:07;5.90;;;1.55;;
53263;SDS011;39153;52.680;6.172;2023-09-19T15:44:32;5.90;;;1.50;;
53263;SDS011;39153;52.680;6.172;2023-09-19T15:46:58;7.20;;;1.92;;
53263;SDS011;39153;52.680;6.172;2023-09-19T15:49:24;8.65;;;2.00;;
53263;SDS011;39153;52.680;6.172;2023-09-19T15:51:50;9.70;;;1.90;;
53263;SDS011;39153;52.680;6.172;2023-09-19T15:54:16;5.00;;;1.48;;
53263;SDS011;39153;52.680;6.172;2023-09-19T15:56:43;8.43;;;2.10;;
53263;SDS011;39153;52.680;6.172;2023-09-19T15:59:10;7.32;;;2.08;;